sensor_id;sensor_type;location;lat;lon;timestamp;P1;durP1;ratioP1;P2;durP2;ratioP2
58214;SDS011;44011;52.218;1.480;2024-01-30T00:00:48;23.55;;;13.82;;
58214;SDS011;44011;52.218;1.480;2024-01-30T00:03:13;19.88;;;11.63;;
58214;SDS011;44011;52.218;1.480;2024-01-30T00:05:38;21.70;;;12.15;;
58214;SDS011;44011;52.218;1.480;2024-01-30T00:08:03;23.70;;;11.65;;
58214;SDS011;44011;52.218;1.480;2024-01-30T00:10:29;19.17;;;11.70;;
58214;SDS011;44011;52.218;1.480;2024-01-30T00:12:54;23.50;;;11.68;;
58214;SDS011;44011;52.218;1.480;2024-01-30T00:15:19;18.02;;;11.32;;
58214;SDS011;44011;52.218;1.480;2024-01-30T00:17:44;27.73;;;12.75;;
58214;SDS011;44011;52.218;1.480;2024-01-30T00:20:10;21.40;;;12.70;;
58214;SDS011;44011;52.218;1.480;2024-01-30T00:22:35;19.48;;;11.73;;
58214;SDS011;44011;52.218;1.480;2024-01-30T00:25:01;20.23;;;11.73;;
58214;SDS011;44011;52.218;1.480;2024-01-30T00:27:26;22.33;;;12.38;;
58214;SDS011;44011;52.218;1.480;2024-01-30T00:29:52;19.98;;;12.52;;
58214;SDS011;44011;52.218;1.480;2024-01-30T00:32:17;21.02;;;11.88;;
58214;SDS011;44011;52.218;1.480;2024-01-30T00:34:44;22.13;;;11.20;;
58214;SDS011;44011;52.218;1.480;2024-01-30T00:37:09;17.95;;;10.90;;
58214;SDS011;44011;52.218;1.480;2024-01-30T00:39:34;20.40;;;12.38;;
58214;SDS011;44011;52.218;1.480;2024-01-30T00:42:00;25.02;;;12.13;;
58214;SDS011;44011;52.218;1.480;2024-01-30T00:44:25;21.38;;;12.02;;
58214;SDS011;44011;52.218;1.480;2024-01-30T00:46:50;19.83;;;11.33;;
58214;SDS011;44011;52.218;1.480;2024-01-30T00:49:15;23.73;;;12.60;;
58214;SDS011;44011;52.218;1.480;2024-01-30T00:51:40;22.98;;;12.13;;
58214;SDS011;44011;52.218;1.480;2024-01-30T00:54:06;21.52;;;11.40;;
58214;SDS011;44011;52.218;1.480;2024-01-30T00:56:31;22.77;;;12.93;;
58214;SDS011;44011;52.218;1.480;2024-01-30T00:58:56;19.55;;;11.27;;
58214;SDS011;44011;52.218;1.480;2024-01-30T01:01:22;23.33;;;12.02;;
58214;SDS011;44011;52.218;1.480;2024-01-30T01:03:47;18.45;;;11.68;;
58214;SDS011;44011;52.218;1.480;2024-01-30T01:06:13;17.92;;;11.20;;
58214;SDS011;44011;52.218;1.480;2024-01-30T01:08:39;20.92;;;11.27;;
58214;SDS011;44011;52.218;1.480;2024-01-30T01:11:04;20.50;;;11.40;;
58214;SDS011;44011;52.218;1.480;2024-01-30T01:13:29;20.20;;;11.52;;
58214;SDS011;44011;52.218;1.480;2024-01-30T01:15:54;23.83;;;10.95;;
58214;SDS011;44011;52.218;1.480;2024-01-30T01:18:20;17.95;;;11.43;;
58214;SDS011;44011;52.218;1.480;2024-01-30T01:20:45;22.17;;;13.73;;
58214;SDS011;44011;52.218;1.480;2024-01-30T01:23:11;20.92;;;11.65;;
58214;SDS011;44011;52.218;1.480;2024-01-30T01:25:36;31.10;;;12.43;;
58214;SDS011;44011;52.218;1.480;2024-01-30T01:28:01;20.45;;;11.20;;
58214;SDS011;44011;52.218;1.480;2024-01-30T01:30:26;20.38;;;11.20;;
58214;SDS011;44011;52.218;1.480;2024-01-30T01:32:53;19.88;;;11.30;;
58214;SDS011;44011;52.218;1.480;2024-01-30T01:35:23;18.70;;;11.35;;
58214;SDS011;44011;52.218;1.480;2024-01-30T01:37:51;22.48;;;11.88;;
58214;SDS011;44011;52.218;1.480;2024-01-30T01:40:23;22.75;;;10.85;;
58214;SDS011;44011;52.218;1.480;2024-01-30T01:42:49;21.38;;;10.50;;
58214;SDS011;44011;52.218;1.480;2024-01-30T01:45:14;19.65;;;10.40;;
58214;SDS011;44011;52.218;1.480;2024-01-30T01:47:39;21.60;;;10.20;;
58214;SDS011;44011;52.218;1.480;2024-01-30T01:50:05;19.58;;;11.63;;
58214;SDS011;44011;52.218;1.480;2024-01-30T01:52:30;21.77;;;11.13;;
58214;SDS011;44011;52.218;1.480;2024-01-30T01:54:56;20.00;;;11.60;;
58214;SDS011;44011;52.218;1.480;2024-01-30T01:57:21;25.48;;;11.25;;
58214;SDS011;44011;52.218;1.480;2024-01-30T01:59:46;20.83;;;11.00;;
58214;SDS011;44011;52.218;1.480;2024-01-30T02:02:12;21.10;;;10.30;;
58214;SDS011;44011;52.218;1.480;2024-01-30T02:04:37;23.65;;;11.18;;
58214;SDS011;44011;52.218;1.480;2024-01-30T02:07:03;25.70;;;10.75;;
58214;SDS011;44011;52.218;1.480;2024-01-30T02:09:28;22.15;;;10.13;;
58214;SDS011;44011;52.218;1.480;2024-01-30T02:11:53;21.73;;;10.30;;
58214;SDS011;44011;52.218;1.480;2024-01-30T02:14:19;15.90;;;10.27;;
58214;SDS011;44011;52.218;1.480;2024-01-30T02:16:44;22.75;;;11.35;;
58214;SDS011;44011;52.218;1.480;2024-01-30T02:19:10;21.30;;;10.30;;
58214;SDS011;44011;52.218;1.480;2024-01-30T02:21:35;21.50;;;10.38;;
58214;SDS011;44011;52.218;1.480;2024-01-30T02:24:00;21.73;;;11.02;;
58214;SDS011;44011;52.218;1.480;2024-01-30T02:26:26;20.48;;;11.23;;
58214;SDS011;44011;52.218;1.480;2024-01-30T02:28:51;24.00;;;10.90;;
58214;SDS011;44011;52.218;1.480;2024-01-30T02:31:16;22.77;;;11.55;;
58214;SDS011;44011;52.218;1.480;2024-01-30T02:33:41;20.55;;;11.35;;
58214;SDS011;44011;52.218;1.480;2024-01-30T02:36:07;19.15;;;11.43;;
58214;SDS011;44011;52.218;1.480;2024-01-30T02:38:32;24.73;;;11.50;;
58214;SDS011;44011;52.218;1.480;2024-01-30T02:40:57;34.85;;;11.38;;
58214;SDS011;44011;52.218;1.480;2024-01-30T02:43:22;24.52;;;11.02;;
58214;SDS011;44011;52.218;1.480;2024-01-30T02:45:48;27.98;;;12.27;;
58214;SDS011;44011;52.218;1.480;2024-01-30T02:48:13;22.55;;;10.95;;
58214;SDS011;44011;52.218;1.480;2024-01-30T02:50:38;25.10;;;11.10;;
58214;SDS011;44011;52.218;1.480;2024-01-30T02:53:03;26.02;;;12.02;;
58214;SDS011;44011;52.218;1.480;2024-01-30T02:55:28;21.15;;;11.00;;
58214;SDS011;44011;52.218;1.480;2024-01-30T02:57:54;22.30;;;10.80;;
58214;SDS011;44011;52.218;1.480;2024-01-30T03:00:19;22.38;;;11.10;;
58214;SDS011;44011;52.218;1.480;2024-01-30T03:02:44;25.83;;;11.63;;
58214;SDS011;44011;52.218;1.480;2024-01-30T03:05:10;26.52;;;11.43;;
58214;SDS011;44011;52.218;1.480;2024-01-30T03:07:35;18.83;;;10.82;;
58214;SDS011;44011;52.218;1.480;2024-01-30T03:10:00;19.33;;;11.65;;
58214;SDS011;44011;52.218;1.480;2024-01-30T03:12:26;20.95;;;11.32;;
58214;SDS011;44011;52.218;1.480;2024-01-30T03:14:51;20.17;;;10.30;;
58214;SDS011;44011;52.218;1.480;2024-01-30T03:17:16;18.73;;;10.75;;
58214;SDS011;44011;52.218;1.480;2024-01-30T03:19:42;22.48;;;10.43;;
58214;SDS011;44011;52.218;1.480;2024-01-30T03:22:07;19.13;;;10.35;;
58214;SDS011;44011;52.218;1.480;2024-01-30T03:24:32;23.88;;;10.40;;
58214;SDS011;44011;52.218;1.480;2024-01-30T03:26:57;21.27;;;10.38;;
58214;SDS011;44011;52.218;1.480;2024-01-30T03:29:22;21.35;;;9.23;;
58214;SDS011;44011;52.218;1.480;2024-01-30T03:31:48;22.27;;;10.40;;
58214;SDS011;44011;52.218;1.480;2024-01-30T03:34:13;21.83;;;10.38;;
58214;SDS011;44011;52.218;1.480;2024-01-30T03:36:38;17.13;;;10.05;;
58214;SDS011;44011;52.218;1.480;2024-01-30T03:39:04;17.48;;;9.70;;
58214;SDS011;44011;52.218;1.480;2024-01-30T03:41:29;18.15;;;9.70;;
58214;SDS011;44011;52.218;1.480;2024-01-30T03:43:54;18.55;;;9.38;;
58214;SDS011;44011;52.218;1.480;2024-01-30T03:46:20;19.88;;;9.38;;
58214;SDS011;44011;52.218;1.480;2024-01-30T03:48:45;22.95;;;10.32;;
58214;SDS011;44011;52.218;1.480;2024-01-30T03:51:11;23.35;;;10.30;;
58214;SDS011;44011;52.218;1.480;2024-01-30T03:53:41;18.17;;;8.95;;
58214;SDS011;44011;52.218;1.480;2024-01-30T03:56:06;16.23;;;8.85;;
58214;SDS011;44011;52.218;1.480;2024-01-30T03:58:32;15.95;;;9.40;;
58214;SDS011;44011;52.218;1.480;2024-01-30T04:00:57;21.50;;;8.57;;
58214;SDS011;44011;52.218;1.480;2024-01-30T04:03:22;21.27;;;8.77;;
58214;SDS011;44011;52.218;1.480;2024-01-30T04:05:47;17.95;;;8.10;;
58214;SDS011;44011;52.218;1.480;2024-01-30T04:08:13;13.13;;;8.60;;
58214;SDS011;44011;52.218;1.480;2024-01-30T04:10:38;16.50;;;7.63;;
58214;SDS011;44011;52.218;1.480;2024-01-30T04:13:03;17.13;;;7.55;;
58214;SDS011;44011;52.218;1.480;2024-01-30T04:15:28;15.52;;;7.57;;
58214;SDS011;44011;52.218;1.480;2024-01-30T04:17:57;15.98;;;7.28;;
58214;SDS011;44011;52.218;1.480;2024-01-30T04:20:22;11.40;;;6.45;;
58214;SDS011;44011;52.218;1.480;2024-01-30T04:22:47;15.05;;;5.97;;
58214;SDS011;44011;52.218;1.480;2024-01-30T04:25:13;11.18;;;5.85;;
58214;SDS011;44011;52.218;1.480;2024-01-30T04:27:38;12.02;;;5.43;;
58214;SDS011;44011;52.218;1.480;2024-01-30T04:30:03;8.52;;;4.30;;
58214;SDS011;44011;52.218;1.480;2024-01-30T04:32:29;9.15;;;4.15;;
58214;SDS011;44011;52.218;1.480;2024-01-30T04:34:54;7.85;;;3.60;;
58214;SDS011;44011;52.218;1.480;2024-01-30T04:37:19;6.95;;;2.70;;
58214;SDS011;44011;52.218;1.480;2024-01-30T04:39:45;6.63;;;2.78;;
58214;SDS011;44011;52.218;1.480;2024-01-30T04:42:10;5.60;;;2.92;;
58214;SDS011;44011;52.218;1.480;2024-01-30T04:44:35;6.03;;;4.00;;
58214;SDS011;44011;52.218;1.480;2024-01-30T04:47:00;7.72;;;2.10;;
58214;SDS011;44011;52.218;1.480;2024-01-30T04:49:26;6.10;;;2.20;;
58214;SDS011;44011;52.218;1.480;2024-01-30T04:51:52;2.65;;;2.42;;
58214;SDS011;44011;52.218;1.480;2024-01-30T04:54:17;5.13;;;2.35;;
58214;SDS011;44011;52.218;1.480;2024-01-30T04:56:42;3.75;;;1.70;;
58214;SDS011;44011;52.218;1.480;2024-01-30T04:59:07;7.07;;;2.00;;
58214;SDS011;44011;52.218;1.480;2024-01-30T05:01:33;4.70;;;1.50;;
58214;SDS011;44011;52.218;1.480;2024-01-30T05:03:58;3.60;;;1.70;;
58214;SDS011;44011;52.218;1.480;2024-01-30T05:06:27;6.32;;;1.90;;
58214;SDS011;44011;52.218;1.480;2024-01-30T05:08:52;7.45;;;1.48;;
58214;SDS011;44011;52.218;1.480;2024-01-30T05:11:18;7.18;;;2.60;;
58214;SDS011;44011;52.218;1.480;2024-01-30T05:13:43;2.53;;;1.40;;
58214;SDS011;44011;52.218;1.480;2024-01-30T05:16:08;5.80;;;1.48;;
58214;SDS011;44011;52.218;1.480;2024-01-30T05:18:33;4.25;;;1.73;;
58214;SDS011;44011;52.218;1.480;2024-01-30T05:20:59;3.17;;;1.42;;
58214;SDS011;44011;52.218;1.480;2024-01-30T05:23:24;6.70;;;2.05;;
58214;SDS011;44011;52.218;1.480;2024-01-30T05:25:49;6.00;;;1.50;;
58214;SDS011;44011;52.218;1.480;2024-01-30T05:28:15;6.18;;;1.25;;
58214;SDS011;44011;52.218;1.480;2024-01-30T05:30:40;4.40;;;1.42;;
58214;SDS011;44011;52.218;1.480;2024-01-30T05:33:05;4.60;;;0.98;;
58214;SDS011;44011;52.218;1.480;2024-01-30T05:35:30;3.75;;;1.35;;
58214;SDS011;44011;52.218;1.480;2024-01-30T05:37:56;3.65;;;1.30;;
58214;SDS011;44011;52.218;1.480;2024-01-30T05:40:21;3.30;;;1.35;;
58214;SDS011;44011;52.218;1.480;2024-01-30T05:42:47;15.02;;;1.58;;
58214;SDS011;44011;52.218;1.480;2024-01-30T05:45:12;4.53;;;1.30;;
58214;SDS011;44011;52.218;1.480;2024-01-30T05:47:37;2.65;;;1.17;;
58214;SDS011;44011;52.218;1.480;2024-01-30T05:50:03;5.60;;;1.30;;
58214;SDS011;44011;52.218;1.480;2024-01-30T05:52:28;3.10;;;0.90;;
58214;SDS011;44011;52.218;1.480;2024-01-30T05:54:53;5.00;;;1.70;;
58214;SDS011;44011;52.218;1.480;2024-01-30T05:57:18;3.55;;;1.27;;
58214;SDS011;44011;52.218;1.480;2024-01-30T05:59:44;4.45;;;1.15;;
58214;SDS011;44011;52.218;1.480;2024-01-30T06:02:13;5.25;;;1.60;;
58214;SDS011;44011;52.218;1.480;2024-01-30T06:04:38;2.92;;;1.30;;
58214;SDS011;44011;52.218;1.480;2024-01-30T06:07:03;4.53;;;1.08;;
58214;SDS011;44011;52.218;1.480;2024-01-30T06:09:31;1.23;;;1.13;;
58214;SDS011;44011;52.218;1.480;2024-01-30T06:11:56;3.65;;;1.23;;
58214;SDS011;44011;52.218;1.480;2024-01-30T06:14:21;1.67;;;0.65;;
58214;SDS011;44011;52.218;1.480;2024-01-30T06:16:46;2.70;;;1.05;;
58214;SDS011;44011;52.218;1.480;2024-01-30T06:19:11;1.80;;;0.90;;
58214;SDS011;44011;52.218;1.480;2024-01-30T06:21:37;2.10;;;0.70;;
58214;SDS011;44011;52.218;1.480;2024-01-30T06:24:03;1.48;;;0.93;;
58214;SDS011;44011;52.218;1.480;2024-01-30T06:26:28;1.98;;;0.90;;
58214;SDS011;44011;52.218;1.480;2024-01-30T06:28:53;2.15;;;0.73;;
58214;SDS011;44011;52.218;1.480;2024-01-30T06:31:19;4.25;;;1.38;;
58214;SDS011;44011;52.218;1.480;2024-01-30T06:33:46;2.85;;;0.85;;
58214;SDS011;44011;52.218;1.480;2024-01-30T06:36:11;0.85;;;0.80;;
58214;SDS011;44011;52.218;1.480;2024-01-30T06:38:36;1.52;;;0.90;;
58214;SDS011;44011;52.218;1.480;2024-01-30T06:41:02;3.10;;;1.33;;
58214;SDS011;44011;52.218;1.480;2024-01-30T06:43:27;1.67;;;1.02;;
58214;SDS011;44011;52.218;1.480;2024-01-30T06:45:52;7.82;;;1.17;;
58214;SDS011;44011;52.218;1.480;2024-01-30T06:48:17;1.40;;;0.88;;
58214;SDS011;44011;52.218;1.480;2024-01-30T06:50:43;2.67;;;0.93;;
58214;SDS011;44011;52.218;1.480;2024-01-30T06:53:08;2.20;;;0.85;;
58214;SDS011;44011;52.218;1.480;2024-01-30T06:55:33;1.98;;;0.85;;
58214;SDS011;44011;52.218;1.480;2024-01-30T06:57:59;1.50;;;0.80;;
58214;SDS011;44011;52.218;1.480;2024-01-30T07:00:24;2.95;;;0.98;;
58214;SDS011;44011;52.218;1.480;2024-01-30T07:02:49;1.33;;;0.80;;
58214;SDS011;44011;52.218;1.480;2024-01-30T07:05:14;0.88;;;0.85;;
58214;SDS011;44011;52.218;1.480;2024-01-30T07:07:40;0.68;;;0.60;;
58214;SDS011;44011;52.218;1.480;2024-01-30T07:10:05;2.85;;;1.08;;
58214;SDS011;44011;52.218;1.480;2024-01-30T07:12:31;2.97;;;0.80;;
58214;SDS011;44011;52.218;1.480;2024-01-30T07:14:57;1.25;;;0.73;;
58214;SDS011;44011;52.218;1.480;2024-01-30T07:17:24;1.30;;;0.75;;
58214;SDS011;44011;52.218;1.480;2024-01-30T07:19:49;3.67;;;0.60;;
58214;SDS011;44011;52.218;1.480;2024-01-30T07:22:15;3.53;;;0.60;;
58214;SDS011;44011;52.218;1.480;2024-01-30T07:24:43;0.88;;;0.50;;
58214;SDS011;44011;52.218;1.480;2024-01-30T07:27:13;2.53;;;0.68;;
58214;SDS011;44011;52.218;1.480;2024-01-30T07:29:39;2.72;;;0.80;;
58214;SDS011;44011;52.218;1.480;2024-01-30T07:32:04;1.05;;;0.55;;
58214;SDS011;44011;52.218;1.480;2024-01-30T07:34:29;1.55;;;0.70;;
58214;SDS011;44011;52.218;1.480;2024-01-30T07:36:55;11.15;;;1.23;;
58214;SDS011;44011;52.218;1.480;2024-01-30T07:39:20;2.90;;;0.80;;
58214;SDS011;44011;52.218;1.480;2024-01-30T07:41:46;2.72;;;0.70;;
58214;SDS011;44011;52.218;1.480;2024-01-30T07:44:11;2.50;;;0.75;;
58214;SDS011;44011;52.218;1.480;2024-01-30T07:46:36;1.73;;;0.80;;
58214;SDS011;44011;52.218;1.480;2024-01-30T07:49:02;2.60;;;0.70;;
58214;SDS011;44011;52.218;1.480;2024-01-30T07:51:27;3.53;;;0.68;;
58214;SDS011;44011;52.218;1.480;2024-01-30T07:53:54;2.35;;;0.73;;
58214;SDS011;44011;52.218;1.480;2024-01-30T07:56:19;1.02;;;0.90;;
58214;SDS011;44011;52.218;1.480;2024-01-30T07:58:44;3.35;;;0.90;;
58214;SDS011;44011;52.218;1.480;2024-01-30T08:01:10;2.28;;;1.20;;
58214;SDS011;44011;52.218;1.480;2024-01-30T08:03:35;2.40;;;1.05;;
58214;SDS011;44011;52.218;1.480;2024-01-30T08:06:01;1.08;;;0.98;;
58214;SDS011;44011;52.218;1.480;2024-01-30T08:08:26;2.17;;;1.15;;
58214;SDS011;44011;52.218;1.480;2024-01-30T08:10:52;1.88;;;1.10;;
58214;SDS011;44011;52.218;1.480;2024-01-30T08:13:17;2.20;;;1.05;;
58214;SDS011;44011;52.218;1.480;2024-01-30T08:15:42;2.25;;;1.40;;
58214;SDS011;44011;52.218;1.480;2024-01-30T08:18:07;1.17;;;1.08;;
58214;SDS011;44011;52.218;1.480;2024-01-30T08:20:33;4.10;;;1.60;;
58214;SDS011;44011;52.218;1.480;2024-01-30T08:22:58;1.30;;;1.20;;
58214;SDS011;44011;52.218;1.480;2024-01-30T08:25:25;1.88;;;1.40;;
58214;SDS011;44011;52.218;1.480;2024-01-30T08:27:50;2.30;;;1.30;;
58214;SDS011;44011;52.218;1.480;2024-01-30T08:30:16;3.83;;;1.60;;
58214;SDS011;44011;52.218;1.480;2024-01-30T08:32:41;2.45;;;1.58;;
58214;SDS011;44011;52.218;1.480;2024-01-30T08:35:06;1.90;;;1.50;;
58214;SDS011;44011;52.218;1.480;2024-01-30T08:37:32;3.47;;;1.67;;
58214;SDS011;44011;52.218;1.480;2024-01-30T08:39:57;1.50;;;1.40;;
58214;SDS011;44011;52.218;1.480;2024-01-30T08:42:22;1.80;;;1.55;;
58214;SDS011;44011;52.218;1.480;2024-01-30T08:44:50;2.63;;;1.60;;
58214;SDS011;44011;52.218;1.480;2024-01-30T08:47:19;2.65;;;1.80;;
58214;SDS011;44011;52.218;1.480;2024-01-30T08:49:44;4.40;;;1.58;;
58214;SDS011;44011;52.218;1.480;2024-01-30T08:52:10;2.80;;;1.20;;
58214;SDS011;44011;52.218;1.480;2024-01-30T08:54:35;3.75;;;1.58;;
58214;SDS011;44011;52.218;1.480;2024-01-30T08:57:01;2.33;;;1.20;;
58214;SDS011;44011;52.218;1.480;2024-01-30T08:59:26;1.30;;;1.13;;
58214;SDS011;44011;52.218;1.480;2024-01-30T09:01:51;1.60;;;1.50;;
58214;SDS011;44011;52.218;1.480;2024-01-30T09:04:20;1.63;;;1.20;;
58214;SDS011;44011;52.218;1.480;2024-01-30T09:06:45;2.15;;;1.30;;
58214;SDS011;44011;52.218;1.480;2024-01-30T09:09:10;1.30;;;1.13;;
58214;SDS011;44011;52.218;1.480;2024-01-30T09:11:35;1.25;;;1.15;;
58214;SDS011;44011;52.218;1.480;2024-01-30T09:14:01;1.10;;;1.00;;
58214;SDS011;44011;52.218;1.480;2024-01-30T09:16:26;2.13;;;1.35;;
58214;SDS011;44011;52.218;1.480;2024-01-30T09:18:51;3.35;;;2.35;;
58214;SDS011;44011;52.218;1.480;2024-01-30T09:21:16;3.88;;;3.22;;
58214;SDS011;44011;52.218;1.480;2024-01-30T09:23:42;3.70;;;3.03;;
58214;SDS011;44011;52.218;1.480;2024-01-30T09:26:07;4.13;;;2.97;;
58214;SDS011;44011;52.218;1.480;2024-01-30T09:28:32;5.70;;;3.80;;
58214;SDS011;44011;52.218;1.480;2024-01-30T09:30:57;5.32;;;3.33;;
58214;SDS011;44011;52.218;1.480;2024-01-30T09:33:23;5.00;;;3.63;;
58214;SDS011;44011;52.218;1.480;2024-01-30T09:35:48;5.55;;;4.25;;
58214;SDS011;44011;52.218;1.480;2024-01-30T09:38:13;4.45;;;3.33;;
58214;SDS011;44011;52.218;1.480;2024-01-30T09:40:38;6.55;;;3.38;;
58214;SDS011;44011;52.218;1.480;2024-01-30T09:43:04;4.03;;;2.85;;
58214;SDS011;44011;52.218;1.480;2024-01-30T09:45:29;5.28;;;3.58;;
58214;SDS011;44011;52.218;1.480;2024-01-30T09:47:54;5.07;;;3.50;;
58214;SDS011;44011;52.218;1.480;2024-01-30T09:50:20;5.15;;;3.65;;
58214;SDS011;44011;52.218;1.480;2024-01-30T09:52:46;5.93;;;3.63;;
58214;SDS011;44011;52.218;1.480;2024-01-30T09:55:12;5.07;;;4.05;;
58214;SDS011;44011;52.218;1.480;2024-01-30T09:57:37;6.15;;;4.45;;
58214;SDS011;44011;52.218;1.480;2024-01-30T10:00:03;8.52;;;4.97;;
58214;SDS011;44011;52.218;1.480;2024-01-30T10:02:29;7.57;;;4.90;;
58214;SDS011;44011;52.218;1.480;2024-01-30T10:04:54;9.90;;;6.40;;
58214;SDS011;44011;52.218;1.480;2024-01-30T10:07:19;8.48;;;5.82;;
58214;SDS011;44011;52.218;1.480;2024-01-30T10:09:45;8.60;;;6.18;;
58214;SDS011;44011;52.218;1.480;2024-01-30T10:12:10;7.95;;;4.70;;
58214;SDS011;44011;52.218;1.480;2024-01-30T10:14:39;7.10;;;5.20;;
58214;SDS011;44011;52.218;1.480;2024-01-30T10:17:05;6.50;;;4.57;;
58214;SDS011;44011;52.218;1.480;2024-01-30T10:19:30;5.13;;;3.20;;
58214;SDS011;44011;52.218;1.480;2024-01-30T10:21:56;4.30;;;3.35;;
58214;SDS011;44011;52.218;1.480;2024-01-30T10:24:24;4.35;;;3.25;;
58214;SDS011;44011;52.218;1.480;2024-01-30T10:26:50;4.78;;;3.08;;
58214;SDS011;44011;52.218;1.480;2024-01-30T10:29:15;4.70;;;3.88;;
58214;SDS011;44011;52.218;1.480;2024-01-30T10:31:41;3.65;;;2.97;;
58214;SDS011;44011;52.218;1.480;2024-01-30T10:34:06;3.58;;;2.60;;
58214;SDS011;44011;52.218;1.480;2024-01-30T10:36:31;3.20;;;2.38;;
58214;SDS011;44011;52.218;1.480;2024-01-30T10:38:59;4.68;;;3.08;;
58214;SDS011;44011;52.218;1.480;2024-01-30T10:41:26;3.65;;;2.80;;
58214;SDS011;44011;52.218;1.480;2024-01-30T10:44:13;5.10;;;3.15;;
58214;SDS011;44011;52.218;1.480;2024-01-30T10:46:38;5.68;;;3.05;;
58214;SDS011;44011;52.218;1.480;2024-01-30T10:49:04;6.88;;;3.65;;
58214;SDS011;44011;52.218;1.480;2024-01-30T10:51:29;5.28;;;3.10;;
58214;SDS011;44011;52.218;1.480;2024-01-30T10:53:56;7.53;;;4.07;;
58214;SDS011;44011;52.218;1.480;2024-01-30T10:56:21;6.15;;;3.60;;
58214;SDS011;44011;52.218;1.480;2024-01-30T10:58:53;7.65;;;3.55;;
58214;SDS011;44011;52.218;1.480;2024-01-30T11:01:22;7.53;;;3.50;;
58214;SDS011;44011;52.218;1.480;2024-01-30T11:03:51;8.00;;;3.10;;
58214;SDS011;44011;52.218;1.480;2024-01-30T11:06:17;5.88;;;3.83;;
58214;SDS011;44011;52.218;1.480;2024-01-30T11:08:45;7.53;;;4.07;;
58214;SDS011;44011;52.218;1.480;2024-01-30T11:11:10;4.07;;;2.85;;
58214;SDS011;44011;52.218;1.480;2024-01-30T11:13:36;6.68;;;3.58;;
58214;SDS011;44011;52.218;1.480;2024-01-30T11:16:02;10.63;;;3.70;;
58214;SDS011;44011;52.218;1.480;2024-01-30T11:18:30;7.55;;;4.25;;
58214;SDS011;44011;52.218;1.480;2024-01-30T11:20:56;6.63;;;3.65;;
58214;SDS011;44011;52.218;1.480;2024-01-30T11:23:22;6.25;;;3.42;;
58214;SDS011;44011;52.218;1.480;2024-01-30T11:25:47;10.13;;;4.85;;
58214;SDS011;44011;52.218;1.480;2024-01-30T11:28:13;8.02;;;4.30;;
58214;SDS011;44011;52.218;1.480;2024-01-30T11:30:40;5.22;;;3.67;;
58214;SDS011;44011;52.218;1.480;2024-01-30T11:33:06;4.90;;;3.45;;
58214;SDS011;44011;52.218;1.480;2024-01-30T11:35:38;5.80;;;3.65;;
58214;SDS011;44011;52.218;1.480;2024-01-30T11:38:07;9.63;;;4.47;;
58214;SDS011;44011;52.218;1.480;2024-01-30T11:40:33;7.35;;;4.30;;
58214;SDS011;44011;52.218;1.480;2024-01-30T11:42:59;8.23;;;4.38;;
58214;SDS011;44011;52.218;1.480;2024-01-30T11:45:25;8.35;;;4.43;;
58214;SDS011;44011;52.218;1.480;2024-01-30T11:47:51;10.52;;;4.38;;
58214;SDS011;44011;52.218;1.480;2024-01-30T11:50:16;10.57;;;5.25;;
58214;SDS011;44011;52.218;1.480;2024-01-30T11:52:41;8.95;;;4.78;;
58214;SDS011;44011;52.218;1.480;2024-01-30T11:55:08;8.05;;;5.03;;
58214;SDS011;44011;52.218;1.480;2024-01-30T11:57:33;10.13;;;5.38;;
58214;SDS011;44011;52.218;1.480;2024-01-30T12:00:01;10.07;;;5.50;;
58214;SDS011;44011;52.218;1.480;2024-01-30T12:02:26;7.20;;;5.13;;
58214;SDS011;44011;52.218;1.480;2024-01-30T12:04:51;8.95;;;5.57;;
58214;SDS011;44011;52.218;1.480;2024-01-30T12:07:17;7.80;;;5.50;;
58214;SDS011;44011;52.218;1.480;2024-01-30T12:09:42;9.15;;;6.05;;
58214;SDS011;44011;52.218;1.480;2024-01-30T12:12:07;11.50;;;6.38;;
58214;SDS011;44011;52.218;1.480;2024-01-30T12:14:37;9.38;;;5.43;;
58214;SDS011;44011;52.218;1.480;2024-01-30T12:17:03;9.40;;;4.65;;
58214;SDS011;44011;52.218;1.480;2024-01-30T12:19:28;8.80;;;5.40;;
58214;SDS011;44011;52.218;1.480;2024-01-30T12:21:56;13.35;;;5.13;;
58214;SDS011;44011;52.218;1.480;2024-01-30T12:24:22;10.27;;;5.68;;
58214;SDS011;44011;52.218;1.480;2024-01-30T12:26:47;8.20;;;4.93;;
58214;SDS011;44011;52.218;1.480;2024-01-30T12:29:14;8.23;;;4.55;;
58214;SDS011;44011;52.218;1.480;2024-01-30T12:31:39;9.48;;;5.57;;
58214;SDS011;44011;52.218;1.480;2024-01-30T12:34:06;13.77;;;5.53;;
58214;SDS011;44011;52.218;1.480;2024-01-30T12:36:32;8.13;;;4.70;;
58214;SDS011;44011;52.218;1.480;2024-01-30T12:38:57;10.63;;;5.05;;
58214;SDS011;44011;52.218;1.480;2024-01-30T12:41:23;8.00;;;5.13;;
58214;SDS011;44011;52.218;1.480;2024-01-30T12:43:53;9.65;;;5.28;;
58214;SDS011;44011;52.218;1.480;2024-01-30T12:46:18;12.15;;;7.35;;
58214;SDS011;44011;52.218;1.480;2024-01-30T12:48:43;10.82;;;6.55;;
58214;SDS011;44011;52.218;1.480;2024-01-30T12:51:08;9.55;;;4.82;;
58214;SDS011;44011;52.218;1.480;2024-01-30T12:53:34;8.77;;;5.50;;
58214;SDS011;44011;52.218;1.480;2024-01-30T12:55:59;10.95;;;5.88;;
58214;SDS011;44011;52.218;1.480;2024-01-30T12:58:24;10.75;;;6.35;;
58214;SDS011;44011;52.218;1.480;2024-01-30T13:00:50;10.93;;;6.38;;
58214;SDS011;44011;52.218;1.480;2024-01-30T13:03:15;10.75;;;6.95;;
58214;SDS011;44011;52.218;1.480;2024-01-30T13:05:41;11.02;;;6.50;;
58214;SDS011;44011;52.218;1.480;2024-01-30T13:08:06;15.52;;;7.45;;
58214;SDS011;44011;52.218;1.480;2024-01-30T13:10:31;12.90;;;6.72;;
58214;SDS011;44011;52.218;1.480;2024-01-30T13:12:56;14.75;;;8.07;;
58214;SDS011;44011;52.218;1.480;2024-01-30T13:15:22;15.68;;;8.40;;
58214;SDS011;44011;52.218;1.480;2024-01-30T13:17:48;16.40;;;7.40;;
58214;SDS011;44011;52.218;1.480;2024-01-30T13:20:13;13.05;;;7.13;;
58214;SDS011;44011;52.218;1.480;2024-01-30T13:22:42;14.45;;;7.90;;
58214;SDS011;44011;52.218;1.480;2024-01-30T13:25:08;14.55;;;7.82;;
58214;SDS011;44011;52.218;1.480;2024-01-30T13:27:33;11.48;;;7.30;;
58214;SDS011;44011;52.218;1.480;2024-01-30T13:29:58;14.32;;;8.77;;
58214;SDS011;44011;52.218;1.480;2024-01-30T13:32:23;15.18;;;7.93;;
58214;SDS011;44011;52.218;1.480;2024-01-30T13:34:49;16.75;;;8.20;;
58214;SDS011;44011;52.218;1.480;2024-01-30T13:37:14;14.35;;;7.70;;
58214;SDS011;44011;52.218;1.480;2024-01-30T13:39:39;12.65;;;7.70;;
58214;SDS011;44011;52.218;1.480;2024-01-30T13:42:04;13.55;;;7.97;;
58214;SDS011;44011;52.218;1.480;2024-01-30T13:44:30;14.63;;;8.27;;
58214;SDS011;44011;52.218;1.480;2024-01-30T13:46:55;15.27;;;8.50;;
58214;SDS011;44011;52.218;1.480;2024-01-30T13:49:20;11.85;;;6.88;;
58214;SDS011;44011;52.218;1.480;2024-01-30T13:51:46;11.77;;;6.75;;
58214;SDS011;44011;52.218;1.480;2024-01-30T13:54:12;12.52;;;7.10;;
58214;SDS011;44011;52.218;1.480;2024-01-30T13:56:37;12.60;;;7.35;;
58214;SDS011;44011;52.218;1.480;2024-01-30T13:59:02;13.18;;;7.85;;
58214;SDS011;44011;52.218;1.480;2024-01-30T14:01:30;16.42;;;7.90;;
58214;SDS011;44011;52.218;1.480;2024-01-30T14:03:55;16.67;;;8.55;;
58214;SDS011;44011;52.218;1.480;2024-01-30T14:06:20;19.00;;;9.18;;
58214;SDS011;44011;52.218;1.480;2024-01-30T14:08:45;15.60;;;8.23;;
58214;SDS011;44011;52.218;1.480;2024-01-30T14:11:11;13.23;;;7.43;;
58214;SDS011;44011;52.218;1.480;2024-01-30T14:13:37;15.70;;;8.68;;
58214;SDS011;44011;52.218;1.480;2024-01-30T14:16:02;17.23;;;8.02;;
58214;SDS011;44011;52.218;1.480;2024-01-30T14:18:27;13.05;;;7.10;;
58214;SDS011;44011;52.218;1.480;2024-01-30T14:20:53;14.18;;;7.18;;
58214;SDS011;44011;52.218;1.480;2024-01-30T14:23:19;13.27;;;6.90;;
58214;SDS011;44011;52.218;1.480;2024-01-30T14:25:44;13.50;;;7.13;;
58214;SDS011;44011;52.218;1.480;2024-01-30T14:28:09;13.57;;;7.05;;